Time;durP1;ratioP1;P1;durP2;ratioP2;P2;SDS_P1;SDS_P2;PMS_P1;PMS_P2;Temp;Humidity;BMP_temperature;BMP_pressure;BME280_temperature;BME280_humidity;BME280_pressure;Samples;Min_cycle;Max_cycle;Signal;HPM_P1;HPM_P2
2022/06/17 00:01:31;;;;;;;;;11.60;11.00;;;;;20.55;71.54;98949.03;6257287;27;97701;-70
2022/06/17 00:04:35;;;;;;;;;13.40;12.00;;;;;20.50;71.92;98947.16;6258369;27;97548;-70
2022/06/17 00:07:41;;;;;;;;;12.00;11.80;;;;;20.53;72.04;98954.78;6225617;27;99581;-70
2022/06/17 00:10:44;;;;;;;;;13.50;13.00;;;;;20.53;71.84;98943.00;6242827;27;98105;-71
2022/06/17 00:13:47;;;;;;;;;13.00;12.50;;;;;20.49;72.14;98950.16;6240894;27;98443;-74
2022/06/17 00:16:51;;;;;;;;;13.00;12.00;;;;;20.49;71.72;98933.75;6243284;27;96685;-72
2022/06/17 00:19:54;;;;;;;;;13.60;13.00;;;;;20.40;72.32;98939.00;6257119;27;97494;-71
2022/06/17 00:22:59;;;;;;;;;15.00;14.00;;;;;20.34;72.09;98931.91;6213361;27;96821;-74
2022/06/17 00:26:03;;;;;;;;;14.00;13.00;;;;;20.28;72.05;98924.84;6238705;27;99841;-72
2022/06/17 00:29:06;;;;;;;;;12.25;11.25;;;;;20.22;72.54;98924.03;6258362;27;98352;-72
2022/06/17 00:32:09;;;;;;;;;15.00;13.60;;;;;20.22;72.39;98924.03;6240954;27;99715;-70
2022/06/17 00:35:14;;;;;;;;;13.40;12.00;;;;;20.06;72.80;98916.19;6248454;27;97753;-72
2022/06/17 00:38:22;;;;;;;;;13.60;13.60;;;;;20.07;73.22;98920.56;6235086;27;96750;-71
2022/06/17 00:41:29;;;;;;;;;14.00;14.00;;;;;19.62;73.55;98845.03;6262385;27;96878;-73
2022/06/17 00:44:39;;;;;;;;;14.00;12.40;;;;;20.03;73.96;98925.81;6224399;27;99708;-70
2022/06/17 00:47:48;;;;;;;;;14.00;13.40;;;;;19.94;73.85;98907.53;6262633;27;97185;-73
2022/06/17 00:50:58;;;;;;;;;14.80;12.80;;;;;20.04;73.40;98916.47;6261240;27;98077;-71
2022/06/17 00:54:14;;;;;;;;;15.00;14.00;;;;;20.00;73.89;98928.25;6259220;27;96547;-73
2022/06/17 00:57:21;;;;;;;;;14.00;13.00;;;;;19.96;74.16;98940.88;6244544;27;97114;-71
2022/06/17 01:00:27;;;;;;;;;14.00;13.00;;;;;19.96;74.47;98922.53;6230474;27;96960;-73
2022/06/17 01:03:35;;;;;;;;;14.00;13.00;;;;;20.00;74.20;98933.75;6234664;27;96659;-73
2022/06/17 01:06:44;;;;;;;;;14.00;14.00;;;;;20.03;74.58;98933.19;6230612;27;98464;-73
2022/06/17 01:10:01;;;;;;;;;13.60;13.00;;;;;19.87;74.51;98903.16;6257802;27;97816;-71
2022/06/17 01:13:08;;;;;;;;;15.00;14.00;;;;;20.03;74.43;98939.50;6213569;27;97239;-70
2022/06/17 01:16:14;;;;;;;;;14.80;14.40;;;;;20.04;74.64;98938.38;6207057;27;99021;-73
2022/06/17 01:19:28;;;;;;;;;16.00;15.00;;;;;20.08;75.13;98944.13;6212711;27;99786;-71
2022/06/17 01:22:39;;;;;;;;;17.20;15.20;;;;;20.12;74.77;98962.44;6240614;27;98179;-71
2022/06/17 01:25:45;;;;;;;;;18.00;16.00;;;;;20.17;75.16;98947.88;6217246;27;99433;-71
2022/06/17 01:28:49;;;;;;;;;19.20;17.60;;;;;20.17;75.19;98961.56;6239315;27;97412;-71
2022/06/17 01:31:56;;;;;;;;;19.00;16.00;;;;;20.23;75.02;98965.94;6257858;27;97977;-73
2022/06/17 01:35:00;;;;;;;;;18.60;16.60;;;;;20.28;74.66;98974.91;6239648;27;97364;-71
2022/06/17 01:38:06;;;;;;;;;18.00;17.00;;;;;20.31;74.56;98988.09;6230011;27;96966;-71
2022/06/17 01:41:11;;;;;;;;;18.00;16.00;;;;;20.24;74.84;98981.22;6246103;27;97029;-73
2022/06/17 01:44:18;;;;;;;;;17.00;16.00;;;;;20.24;74.72;98982.06;6225152;27;100015;-71
2022/06/17 01:47:25;;;;;;;;;14.60;14.00;;;;;20.25;74.72;98975.47;6230038;27;96864;-70
2022/06/17 01:50:30;;;;;;;;;17.25;15.00;;;;;20.24;74.46;98975.75;6253109;27;97456;-73
2022/06/17 01:53:40;;;;;;;;;17.60;16.00;;;;;20.20;74.79;98980.16;6261984;27;96619;-73
2022/06/17 01:56:47;;;;;;;;;17.25;15.75;;;;;20.16;74.72;98987.31;6261503;27;97280;-71
2022/06/17 01:59:56;;;;;;;;;19.00;16.40;;;;;20.10;74.78;98986.50;6221247;27;99381;-71
2022/06/17 02:03:12;;;;;;;;;15.60;14.00;;;;;20.20;75.16;98989.19;6236404;27;97331;-71
2022/06/17 02:06:23;;;;;;;;;16.00;15.00;;;;;20.28;74.05;98996.03;6253765;27;97842;-72
2022/06/17 02:09:28;;;;;;;;;14.40;14.40;;;;;20.26;74.10;98995.47;6254710;27;97558;-72
2022/06/17 02:12:31;;;;;;;;;17.00;15.00;;;;;20.25;74.17;99002.03;6238451;27;98746;-71
2022/06/17 02:15:42;;;;;;;;;16.80;15.00;;;;;20.26;73.60;99004.50;6236073;27;98232;-73
2022/06/17 02:19:09;;;;;;;;;14.80;13.80;;;;;20.19;73.74;99003.97;6255928;27;96989;-73
2022/06/17 02:22:17;;;;;;;;;16.00;15.00;;;;;19.98;73.76;98996.97;6239377;27;96647;-72
2022/06/17 02:25:26;;;;;;;;;14.00;13.00;;;;;20.15;73.45;99013.03;6214589;27;98420;-72
2022/06/17 02:28:32;;;;;;;;;16.40;13.00;;;;;20.18;73.32;99017.97;6231346;27;97928;-74
2022/06/17 02:31:36;;;;;;;;;14.00;13.00;;;;;20.14;72.79;99014.94;6247297;27;97791;-74
2022/06/17 02:34:50;;;;;;;;;13.80;13.00;;;;;20.10;72.97;99013.06;6235320;27;96766;-72
2022/06/17 02:37:55;;;;;;;;;13.00;12.60;;;;;20.10;73.48;99016.63;6245826;27;97949;-73
2022/06/17 02:41:05;;;;;;;;;12.75;12.50;;;;;20.11;73.15;99011.97;6231920;27;97513;-71
2022/06/17 02:44:17;;;;;;;;;15.00;13.40;;;;;20.10;73.03;99010.31;6245860;27;98382;-74
2022/06/17 02:47:22;;;;;;;;;14.00;14.00;;;;;20.14;73.03;99004.00;6238554;27;96803;-73
2022/06/17 02:50:30;;;;;;;;;15.00;15.00;;;;;20.10;73.06;99013.06;6231949;27;97807;-72
2022/06/17 02:53:37;;;;;;;;;11.20;11.00;;;;;20.13;73.28;99018.81;6216414;27;98935;-74
2022/06/17 02:56:46;;;;;;;;;12.00;11.60;;;;;20.18;73.01;99021.50;6229552;27;97413;-71
2022/06/17 02:59:52;;;;;;;;;15.00;13.80;;;;;20.19;72.53;99019.59;6256161;27;97536;-70
2022/06/17 03:03:01;;;;;;;;;13.60;12.60;;;;;20.22;72.51;99021.78;6241052;27;97591;-70
2022/06/17 03:06:15;;;;;;;;;12.00;12.00;;;;;20.22;72.26;99019.03;6224605;27;97162;-70
2022/06/17 03:09:27;;;;;;;;;13.60;12.60;;;;;20.27;72.39;99025.31;6244088;27;97434;-72
2022/06/17 03:12:32;;;;;;;;;13.00;12.50;;;;;20.31;72.22;99036.53;6242751;27;98018;-74
2022/06/17 03:15:39;;;;;;;;;15.80;14.00;;;;;20.35;71.96;99039.53;6226924;27;97424;-73
2022/06/17 03:18:46;;;;;;;;;13.00;11.50;;;;;20.39;72.06;99038.69;6235915;27;96911;-71
2022/06/17 03:21:49;;;;;;;;;12.40;11.40;;;;;20.42;72.00;99023.63;6243475;27;97409;-74
2022/06/17 03:24:59;;;;;;;;;14.67;13.00;;;;;20.65;71.35;99048.41;6242721;27;97595;-72
2022/06/17 03:28:09;;;;;;;;;15.60;14.00;;;;;20.62;71.75;99056.38;6260815;27;97523;-72
2022/06/17 03:31:21;;;;;;;;;15.40;15.00;;;;;20.64;71.55;99057.72;6243481;27;96687;-73
2022/06/17 03:34:31;;;;;;;;;15.40;15.40;;;;;20.70;71.05;99055.78;6233307;27;96925;-72
2022/06/17 03:37:47;;;;;;;;;12.00;11.60;;;;;20.71;71.43;99063.72;6236649;27;97238;-72
2022/06/17 03:40:55;;;;;;;;;15.75;14.50;;;;;20.57;72.31;99050.94;6236448;27;97135;-71
2022/06/17 03:44:04;;;;;;;;;16.00;14.40;;;;;20.71;71.73;99077.41;6228848;27;96930;-73
2022/06/17 03:47:17;;;;;;;;;15.00;14.00;;;;;20.72;71.66;99070.81;6216481;27;98506;-73
2022/06/17 03:50:26;;;;;;;;;14.00;13.00;;;;;20.77;71.74;99069.16;6237516;27;97532;-72
2022/06/17 03:53:33;;;;;;;;;15.25;14.25;;;;;20.85;72.04;99063.91;6218347;27;96844;-73
2022/06/17 03:56:42;;;;;;;;;15.50;14.50;;;;;20.79;71.80;99047.75;6242326;27;97072;-71
2022/06/17 03:59:50;;;;;;;;;17.80;14.80;;;;;21.01;71.60;99075.59;6234863;27;97765;-71
2022/06/17 04:02:55;;;;;;;;;16.00;15.00;;;;;21.02;71.45;99078.00;6232580;27;98524;-72
2022/06/17 04:06:03;;;;;;;;;17.00;15.00;;;;;21.04;71.36;99083.22;6226819;27;98575;-73
2022/06/17 04:09:15;;;;;;;;;16.40;14.40;;;;;21.28;71.07;99088.81;6245703;27;97489;-73
2022/06/17 04:12:25;;;;;;;;;19.00;17.00;;;;;21.42;70.74;99093.38;6230386;27;97469;-71
2022/06/17 04:16:00;;;;;;;;;17.00;13.00;;;;;21.36;70.68;99069.81;6236639;27;97648;-72
2022/06/17 04:19:15;;;;;;;;;18.00;17.00;;;;;21.58;70.51;99102.28;6242282;27;97520;-71
2022/06/17 04:22:28;;;;;;;;;22.40;18.00;;;;;21.66;69.41;99103.56;6239102;27;97602;-72
2022/06/17 04:25:58;;;;;;;;;21.00;19.00;;;;;21.69;69.48;99114.00;6216841;27;97942;-74
2022/06/17 04:29:05;;;;;;;;;20.60;18.00;;;;;21.73;69.30;99115.06;6240801;27;97286;-72
2022/06/17 04:32:18;;;;;;;;;21.80;20.00;;;;;21.77;69.29;99116.94;6219007;27;97866;-70
2022/06/17 04:35:24;;;;;;;;;22.20;20.00;;;;;21.77;69.06;99122.41;6240925;27;96749;-72
2022/06/17 04:38:29;;;;;;;;;23.00;22.00;;;;;21.63;69.18;99109.66;6242532;27;97223;-71
2022/06/17 04:41:55;;;;;;;;;24.40;20.60;;;;;21.80;68.91;99121.00;6262139;27;98043;-71
2022/06/17 04:45:04;;;;;;;;;24.00;21.00;;;;;21.88;69.15;99128.63;6245676;27;98039;-71
2022/06/17 04:48:13;;;;;;;;;22.20;21.00;;;;;21.83;69.03;99124.00;6251540;27;98496;-73
2022/06/17 04:51:17;;;;;;;;;25.00;20.60;;;;;21.80;68.72;99121.81;6255316;27;96525;-73
2022/06/17 04:54:21;;;;;;;;;22.20;19.60;;;;;21.83;68.74;99118.53;6231618;28;98355;-73
2022/06/17 04:57:57;;;;;;;;;23.00;22.00;;;;;21.88;68.42;99131.38;6236373;28;97419;-71
2022/06/17 05:01:01;;;;;;;;;23.00;21.00;;;;;21.90;68.41;99129.13;6223037;27;99614;-72
2022/06/17 05:04:28;;;;;;;;;25.00;22.00;;;;;21.88;68.12;99129.44;6251761;27;96847;-71
2022/06/17 05:07:42;;;;;;;;;23.20;21.00;;;;;21.82;68.22;99125.09;6225042;27;97754;-73
2022/06/17 05:11:09;;;;;;;;;23.00;21.00;;;;;21.91;68.70;99125.28;6235759;27;97790;-74
2022/06/17 05:14:22;;;;;;;;;27.80;24.00;;;;;21.96;68.64;99126.09;6247773;27;97418;-73
2022/06/17 05:17:26;;;;;;;;;20.40;19.00;;;;;21.86;69.05;99133.56;6223504;27;99991;-74
2022/06/17 05:20:31;;;;;;;;;24.80;22.80;;;;;21.86;68.95;99122.59;6234558;27;99440;-73
2022/06/17 05:23:35;;;;;;;;;21.67;19.67;;;;;21.94;69.33;99128.28;6242393;27;97473;-73
2022/06/17 05:26:40;;;;;;;;;27.80;24.80;;;;;21.99;69.45;99141.19;6240968;27;97456;-73
2022/06/17 05:29:44;;;;;;;;;29.00;25.00;;;;;22.11;68.90;99129.78;6230194;27;97329;-73
2022/06/17 05:32:50;;;;;;;;;23.60;21.60;;;;;22.31;68.75;99129.56;6241966;27;97851;-71
2022/06/17 05:35:56;;;;;;;;;23.00;22.00;;;;;22.54;67.71;99138.91;6221553;27;99080;-70
2022/06/17 05:38:59;;;;;;;;;23.25;20.25;;;;;22.76;66.49;99144.72;6249611;27;97400;-71
2022/06/17 05:42:05;;;;;;;;;22.60;21.60;;;;;22.96;65.33;99144.44;6230373;27;99032;-70
2022/06/17 05:45:14;;;;;;;;;24.00;22.00;;;;;23.33;64.34;99154.59;6250937;27;97433;-71
2022/06/17 05:48:40;;;;;;;;;21.60;18.00;;;;;23.61;61.90;99150.06;6240927;27;98300;-72
2022/06/17 05:52:00;;;;;;;;;22.00;21.00;;;;;23.73;61.45;99153.97;6234762;27;97933;-74
2022/06/17 05:55:20;;;;;;;;;22.40;21.00;;;;;23.69;60.26;99157.66;6227664;27;98259;-72
2022/06/17 05:58:24;;;;;;;;;22.20;20.00;;;;;23.63;60.62;99158.84;6235569;27;100108;-71
2022/06/17 06:01:29;;;;;;;;;25.00;22.00;;;;;23.81;60.06;99157.16;6222721;27;99579;-70
2022/06/17 06:04:33;;;;;;;;;21.00;19.00;;;;;23.97;59.24;99155.78;6248819;27;97414;-72
2022/06/17 06:07:38;;;;;;;;;23.40;21.00;;;;;24.19;58.33;99166.94;6246698;27;97525;-71
2022/06/17 06:10:43;;;;;;;;;20.50;19.50;;;;;24.32;56.96;99170.84;6227150;27;99463;-73
2022/06/17 06:13:47;;;;;;;;;20.80;19.20;;;;;24.33;56.66;99180.75;6221240;27;98669;-72
2022/06/17 06:16:51;;;;;;;;;23.00;21.40;;;;;24.50;56.89;99169.94;6233893;27;97463;-73
2022/06/17 06:19:55;;;;;;;;;24.00;19.80;;;;;24.51;54.78;99152.28;6237573;27;96672;-73
2022/06/17 06:23:00;;;;;;;;;21.60;19.40;;;;;24.87;54.76;99174.47;6239659;27;97484;-71
2022/06/17 06:26:05;;;;;;;;;24.00;21.00;;;;;24.93;54.33;99189.75;6242719;27;96666;-72
2022/06/17 06:29:08;;;;;;;;;20.80;18.80;;;;;24.92;53.57;99188.94;6254649;27;97110;-73
2022/06/17 06:32:15;;;;;;;;;20.00;18.60;;;;;25.15;53.69;99181.56;6217149;27;98805;-74
2022/06/17 06:35:33;;;;;;;;;22.40;20.00;;;;;25.32;53.52;99183.63;6237128;27;96661;-72
2022/06/17 06:38:39;;;;;;;;;26.50;24.50;;;;;24.98;52.39;99175.84;6207879;27;96713;-74
2022/06/17 06:41:42;;;;;;;;;25.50;22.50;;;;;25.07;53.28;99195.28;6242573;27;96746;-74
2022/06/17 06:44:46;;;;;;;;;24.00;22.60;;;;;25.14;52.98;99192.91;6223115;27;97774;-71
2022/06/17 06:48:05;;;;;;;;;20.50;20.00;;;;;25.50;51.21;99195.66;6238788;27;97368;-73
2022/06/17 06:51:08;;;;;;;;;20.00;19.40;;;;;25.47;50.28;99166.72;6230715;27;96573;-71
2022/06/17 06:54:13;;;;;;;;;22.75;20.00;;;;;25.47;50.08;99197.09;6219894;27;99433;-71
2022/06/17 06:57:19;;;;;;;;;22.00;19.40;;;;;25.42;51.08;99200.78;6257776;27;97170;-72
2022/06/17 07:00:37;;;;;;;;;21.25;20.00;;;;;25.19;50.69;99201.88;6222731;27;98222;-73
2022/06/17 07:03:41;;;;;;;;;21.20;20.00;;;;;25.06;51.47;99194.47;6255522;27;97075;-73
2022/06/17 07:06:45;;;;;;;;;22.00;19.50;;;;;25.12;52.40;99203.44;6237532;27;96997;-74
2022/06/17 07:09:50;;;;;;;;;19.75;18.00;;;;;25.08;52.27;99189.44;6249013;27;97371;-74
2022/06/17 07:12:54;;;;;;;;;19.60;17.00;;;;;25.13;52.46;99183.81;6258211;27;97079;-74
2022/06/17 07:15:59;;;;;;;;;21.25;19.00;;;;;25.10;51.63;99191.88;6241009;27;97675;-72
2022/06/17 07:19:07;;;;;;;;;21.00;20.00;;;;;24.86;52.02;99186.59;6253847;27;97153;-71
2022/06/17 07:22:10;;;;;;;;;20.00;20.00;;;;;24.89;52.24;99183.22;6231974;28;96553;-73
2022/06/17 07:25:16;;;;;;;;;20.00;19.00;;;;;24.81;52.49;99194.97;6254859;27;98177;-71
2022/06/17 07:28:21;;;;;;;;;20.40;19.40;;;;;24.64;52.94;99195.56;6243161;27;97562;-71
2022/06/17 07:31:25;;;;;;;;;20.00;19.60;;;;;24.29;53.38;99197.06;6258623;27;97152;-71
2022/06/17 07:34:29;;;;;;;;;21.00;20.00;;;;;24.24;53.37;99202.66;6261072;27;96828;-71
2022/06/17 07:40:54;;;;;;;;;21.40;19.00;;;;;24.31;53.40;99214.13;6200337;27;97418;-73
2022/06/17 07:43:57;;;;;;;;;22.80;21.20;;;;;24.29;53.40;99213.59;6253118;27;97275;-72
2022/06/17 07:47:01;;;;;;;;;24.00;23.00;;;;;24.17;53.36;99210.53;6223530;27;96614;-71
2022/06/17 07:50:07;;;;;;;;;24.50;22.50;;;;;24.27;54.24;99212.28;6243523;27;96963;-73
2022/06/17 07:53:11;;;;;;;;;29.80;27.00;;;;;24.29;55.02;99218.31;6239308;27;99563;-72
2022/06/17 07:56:16;;;;;;;;;28.00;26.00;;;;;24.34;55.13;99223.72;6246512;27;100029;-73
2022/06/17 07:59:20;;;;;;;;;31.80;28.40;;;;;24.10;55.54;99229.34;6261593;27;96567;-73
2022/06/17 08:02:23;;;;;;;;;30.67;28.00;;;;;23.96;55.82;99229.31;6260218;27;97435;-73
2022/06/17 08:05:26;;;;;;;;;32.00;29.40;;;;;23.84;56.56;99226.22;6245877;27;99509;-72
2022/06/17 08:08:32;;;;;;;;;30.60;28.00;;;;;23.82;56.32;99224.88;6225609;27;99634;-71
2022/06/17 08:11:37;;;;;;;;;32.00;29.00;;;;;23.85;56.48;99222.31;6261292;27;97409;-73
2022/06/17 08:14:43;;;;;;;;;26.75;24.50;;;;;23.64;56.95;99197.09;6243128;27;96862;-73
2022/06/17 08:17:46;;;;;;;;;31.60;27.80;;;;;23.82;56.63;99236.69;6227980;27;98970;-74
2022/06/17 08:20:51;;;;;;;;;29.00;28.00;;;;;23.99;56.36;99236.16;6263767;27;96763;-74
2022/06/17 08:23:54;;;;;;;;;35.50;30.75;;;;;23.96;55.45;99234.81;6256304;27;96737;-71
2022/06/17 08:26:59;;;;;;;;;29.20;27.00;;;;;24.02;55.44;99246.56;6249826;27;98208;-74
2022/06/17 08:30:02;;;;;;;;;29.60;28.00;;;;;23.89;55.29;99237.16;6243457;27;97119;-73
2022/06/17 08:33:07;;;;;;;;;31.00;29.00;;;;;24.02;55.52;99263.09;6245451;27;98792;-73
2022/06/17 08:36:31;;;;;;;;;30.00;28.00;;;;;24.04;55.52;99258.91;6244445;27;100884;-71
2022/06/17 08:39:34;;;;;;;;;30.60;28.80;;;;;24.03;55.15;99260.06;6245024;27;96609;-71
2022/06/17 08:42:50;;;;;;;;;31.00;30.00;;;;;23.93;55.31;99257.47;6235442;27;97071;-72
2022/06/17 08:46:04;;;;;;;;;33.40;30.00;;;;;23.86;55.48;99240.50;6263203;27;96574;-74
2022/06/17 08:49:25;;;;;;;;;29.20;28.20;;;;;23.97;55.22;99258.50;6256125;27;96831;-73
2022/06/17 08:52:51;;;;;;;;;30.20;27.00;;;;;24.27;55.31;99264.63;6257146;27;97527;-73
2022/06/17 08:56:06;;;;;;;;;31.40;28.60;;;;;24.35;53.90;99263.94;6258359;27;98051;-72
2022/06/17 08:59:23;;;;;;;;;29.00;27.60;;;;;24.94;51.95;99255.66;6262154;27;98092;-73
2022/06/17 09:02:42;;;;;;;;;30.00;28.00;;;;;25.76;49.58;99260.22;6261635;27;97211;-72
2022/06/17 09:05:52;;;;;;;;;31.00;27.67;;;;;26.28;47.66;99269.75;6261993;27;97342;-73
2022/06/17 09:09:14;;;;;;;;;29.00;27.00;;;;;26.62;46.74;99269.94;6238493;27;97813;-73
2022/06/17 09:12:25;;;;;;;;;29.20;27.20;;;;;26.68;45.17;99279.72;6262492;27;97547;-72
2022/06/17 09:15:38;;;;;;;;;29.00;25.50;;;;;26.42;45.63;99278.78;6261549;27;97648;-73
2022/06/17 09:18:45;;;;;;;;;28.00;25.60;;;;;26.41;46.37;99290.97;6229508;27;96547;-74
2022/06/17 09:21:52;;;;;;;;;28.80;28.00;;;;;26.52;46.23;99295.13;6264131;27;97497;-73
2022/06/17 09:25:02;;;;;;;;;27.00;26.00;;;;;26.33;46.05;99277.91;6228968;27;98570;-75
2022/06/17 09:28:15;;;;;;;;;29.40;28.40;;;;;26.53;44.61;99299.50;6244983;27;96958;-75
2022/06/17 09:31:27;;;;;;;;;27.40;25.00;;;;;26.51;45.07;99309.25;6241026;27;97711;-74
2022/06/17 09:34:42;;;;;;;;;29.00;27.00;;;;;26.40;44.72;99305.09;6254047;27;96620;-74
2022/06/17 09:37:52;;;;;;;;;25.60;23.60;;;;;26.42;44.89;99303.66;6263587;27;97644;-74
2022/06/17 09:41:02;;;;;;;;;25.20;24.60;;;;;26.47;45.69;99305.47;6245317;27;99627;-73
2022/06/17 09:44:11;;;;;;;;;27.00;25.20;;;;;26.72;44.43;99305.63;6245108;27;96738;-73
2022/06/17 09:47:24;;;;;;;;;27.00;24.40;;;;;27.21;44.87;99312.06;6236658;28;97057;-73
2022/06/17 09:50:33;;;;;;;;;24.00;22.40;;;;;27.30;42.75;99309.31;6241518;27;96505;-73
2022/06/17 09:53:41;;;;;;;;;25.60;24.00;;;;;27.26;42.49;99306.38;6257544;27;96646;-72
2022/06/17 09:56:51;;;;;;;;;27.00;25.20;;;;;27.17;43.03;99309.09;6263481;27;97703;-73
2022/06/17 10:00:01;;;;;;;;;26.50;24.50;;;;;27.03;43.97;99304.81;6233376;27;97673;-74
2022/06/17 10:03:22;;;;;;;;;27.00;24.00;;;;;27.17;43.46;99301.94;6257093;27;97060;-73
2022/06/17 10:06:36;;;;;;;;;25.20;23.00;;;;;27.21;42.43;99298.22;6224150;27;100104;-74
2022/06/17 10:09:54;;;;;;;;;24.60;23.00;;;;;27.34;43.08;99311.09;6235801;27;98037;-74
2022/06/17 10:13:17;;;;;;;;;23.80;21.40;;;;;27.29;42.29;99318.75;6260678;27;96680;-74
2022/06/17 10:20:24;;;;;;;;;25.00;22.00;;;;;26.97;43.01;99329.06;6242594;27;96658;-73
2022/06/17 10:23:40;;;;;;;;;23.00;21.00;;;;;26.77;43.64;99312.16;6258846;27;97438;-73
2022/06/17 10:27:01;;;;;;;;;21.00;20.00;;;;;27.34;43.56;99316.66;6240682;27;97607;-72
2022/06/17 10:30:07;;;;;;;;;19.60;18.60;;;;;27.91;41.29;99309.09;6240446;27;96952;-75
2022/06/17 10:33:14;;;;;;;;;20.20;19.00;;;;;28.36;40.59;99304.03;6225610;27;100393;-72
2022/06/17 10:36:19;;;;;;;;;20.40;19.00;;;;;28.54;40.03;99304.03;6260957;27;97470;-73
2022/06/17 10:39:26;;;;;;;;;22.00;21.00;;;;;28.45;40.04;99306.78;6252141;27;97369;-74
2022/06/17 10:42:30;;;;;;;;;19.60;18.00;;;;;28.42;39.79;99307.47;6258829;27;97484;-74
2022/06/17 10:45:36;;;;;;;;;18.00;17.00;;;;;28.53;39.78;99319.84;6259953;27;96723;-73
2022/06/17 10:48:45;;;;;;;;;20.40;18.00;;;;;28.32;39.43;99286.44;6239818;27;98054;-73
2022/06/17 10:51:54;;;;;;;;;19.40;18.00;;;;;28.73;39.38;99302.53;6260196;27;97199;-73
2022/06/17 10:55:01;;;;;;;;;19.25;16.25;;;;;28.69;38.98;99311.78;6239199;27;96767;-74
2022/06/17 10:58:11;;;;;;;;;27.00;24.80;;;;;28.35;39.24;99309.91;6233177;27;96518;-75
2022/06/17 11:01:15;;;;;;;;;22.50;20.00;;;;;27.51;40.20;99286.22;6259559;27;97199;-74
2022/06/17 11:04:24;;;;;;;;;27.40;23.00;;;;;27.07;41.62;99308.59;6255530;27;96792;-72
2022/06/17 11:07:31;;;;;;;;;24.40;24.00;;;;;26.40;43.05;99305.09;6246721;27;97447;-73
2022/06/17 11:10:35;;;;;;;;;23.50;22.50;;;;;26.41;43.45;99290.97;6255237;27;97627;-74
2022/06/17 11:13:39;;;;;;;;;24.00;23.60;;;;;26.61;43.69;99318.09;6261821;27;97018;-74
2022/06/17 11:16:43;;;;;;;;;26.00;24.00;;;;;26.98;43.53;99305.75;6261559;27;96619;-74
2022/06/17 11:19:53;;;;;;;;;24.80;22.00;;;;;27.01;42.85;99298.78;6243337;27;97911;-74
2022/06/17 11:23:01;;;;;;;;;24.00;22.40;;;;;27.01;43.00;99310.69;6260342;27;98232;-73
2022/06/17 11:26:13;;;;;;;;;22.00;21.00;;;;;27.03;42.29;99290.97;6247488;27;97091;-74
2022/06/17 11:29:21;;;;;;;;;24.00;22.00;;;;;27.64;41.58;99311.34;6231304;27;98588;-74
2022/06/17 11:32:33;;;;;;;;;21.00;20.00;;;;;27.97;39.90;99305.03;6246000;27;97163;-74
2022/06/17 11:35:39;;;;;;;;;19.80;17.00;;;;;28.19;39.33;99303.25;6255729;27;97645;-74
2022/06/17 11:38:44;;;;;;;;;17.00;15.00;;;;;28.38;38.79;99303.72;6266446;27;96881;-73
2022/06/17 11:41:57;;;;;;;;;17.20;15.60;;;;;28.85;37.91;99310.16;6266207;27;97536;-73
2022/06/17 11:45:01;;;;;;;;;14.40;13.00;;;;;28.97;35.82;99288.06;6254456;27;96489;-74
2022/06/17 11:48:11;;;;;;;;;13.00;12.00;;;;;29.03;34.93;99297.81;6248162;27;96911;-74
2022/06/17 11:51:18;;;;;;;;;15.80;13.80;;;;;29.09;36.35;99301.22;6247855;27;96578;-74
2022/06/17 11:54:26;;;;;;;;;15.00;14.00;;;;;29.14;36.66;99303.81;6266640;27;96399;-74
2022/06/17 11:57:34;;;;;;;;;17.00;15.00;;;;;29.25;35.81;99308.66;6247819;27;97862;-73
2022/06/17 12:00:46;;;;;;;;;12.00;11.50;;;;;29.64;34.96;99301.91;6264712;27;96591;-74
2022/06/17 12:03:49;;;;;;;;;14.00;12.00;;;;;30.19;35.31;99300.84;6264500;27;97296;-72
2022/06/17 12:06:56;;;;;;;;;10.80;10.40;;;;;30.35;33.48;99304.59;6247343;27;97029;-74
2022/06/17 12:10:12;;;;;;;;;8.00;7.00;;;;;30.43;31.76;99300.13;6247947;27;97348;-74
2022/06/17 12:13:27;;;;;;;;;9.00;8.00;;;;;30.31;30.79;99300.06;6230274;27;97764;-74
2022/06/17 12:16:38;;;;;;;;;10.00;10.00;;;;;30.19;30.31;99320.31;6266148;27;96504;-72
2022/06/17 12:19:42;;;;;;;;;7.20;7.00;;;;;30.32;30.90;99310.03;6264913;27;96413;-74
2022/06/17 12:22:53;;;;;;;;;8.40;7.40;;;;;30.48;29.72;99297.16;6259304;27;97746;-72
2022/06/17 12:26:01;;;;;;;;;8.00;8.00;;;;;30.75;29.03;99304.88;6212898;27;97747;-73
2022/06/17 12:29:10;;;;;;;;;7.00;7.00;;;;;30.86;28.80;99305.25;6265869;27;96449;-74
2022/06/17 12:32:23;;;;;;;;;8.40;7.40;;;;;31.06;29.29;99312.72;6255015;27;97568;-74
2022/06/17 12:35:35;;;;;;;;;5.00;5.00;;;;;31.15;28.63;99304.25;6236760;27;96977;-74
2022/06/17 12:38:45;;;;;;;;;5.75;5.00;;;;;31.38;27.42;99306.22;6262066;27;96614;-73
2022/06/17 12:41:58;;;;;;;;;5.80;5.80;;;;;31.61;27.06;99297.41;6229443;27;99547;-74
2022/06/17 12:45:17;;;;;;;;;6.25;6.00;;;;;31.80;26.59;99295.63;6247574;27;98061;-74
2022/06/17 12:48:33;;;;;;;;;7.00;6.40;;;;;31.67;26.95;99298.78;6258055;27;96978;-75
2022/06/17 12:55:14;;;;;;;;;5.60;5.00;;;;;30.99;27.78;99284.59;6250643;27;96640;-74
2022/06/17 12:58:34;;;;;;;;;4.20;4.20;;;;;30.87;28.34;99304.91;6254655;27;96907;-73
2022/06/17 13:01:44;;;;;;;;;6.00;6.00;;;;;30.53;28.20;99305.28;6264180;27;98068;-75
2022/06/17 13:05:15;;;;;;;;;5.00;5.00;;;;;30.31;28.11;99305.63;6256779;27;96880;-74
2022/06/17 13:08:27;;;;;;;;;6.00;6.00;;;;;30.08;28.67;99303.25;6240356;27;97268;-75
2022/06/17 13:11:39;;;;;;;;;4.00;4.00;;;;;29.88;28.78;99300.44;6223488;27;97866;-73
2022/06/17 13:14:54;;;;;;;;;4.40;4.40;;;;;29.84;28.96;99291.16;6259791;27;96587;-75
2022/06/17 13:18:03;;;;;;;;;6.00;6.00;;;;;29.65;28.34;99286.88;6263045;27;97247;-74
2022/06/17 13:21:10;;;;;;;;;6.00;5.00;;;;;29.66;29.46;99285.69;6245162;27;98178;-75
2022/06/17 13:24:28;;;;;;;;;5.00;5.00;;;;;29.41;30.16;99274.78;6252776;27;97446;-75
2022/06/17 13:27:38;;;;;;;;;3.20;3.00;;;;;29.50;30.15;99301.38;6232731;27;96570;-75
2022/06/17 13:30:47;;;;;;;;;4.00;3.00;;;;;29.60;29.69;99300.97;6263329;27;96766;-73
2022/06/17 13:33:56;;;;;;;;;3.00;3.00;;;;;29.63;29.11;99291.94;6264696;27;96647;-75
2022/06/17 13:37:07;;;;;;;;;4.00;3.00;;;;;29.62;27.68;99308.94;6254761;27;98130;-75
2022/06/17 13:40:16;;;;;;;;;2.60;2.60;;;;;29.62;28.51;99308.94;6245631;27;97802;-73
2022/06/17 13:43:25;;;;;;;;;2.00;2.00;;;;;29.44;28.39;99302.69;6263924;27;97411;-74
2022/06/17 13:46:39;;;;;;;;;3.00;3.00;;;;;29.63;28.78;99305.03;6234804;27;96551;-75
2022/06/17 13:49:52;;;;;;;;;2.00;2.00;;;;;29.56;27.49;99299.22;6264403;27;97486;-74
2022/06/17 13:53:05;;;;;;;;;2.20;2.00;;;;;29.52;27.43;99295.44;6262102;27;96431;-74
2022/06/17 13:56:16;;;;;;;;;2.00;2.00;;;;;29.35;28.01;99299.16;6253923;27;96853;-72
2022/06/17 13:59:34;;;;;;;;;3.00;3.00;;;;;29.37;28.12;99301.63;6240592;27;97561;-74
2022/06/17 14:02:55;;;;;;;;;1.00;1.00;;;;;29.41;27.51;99300.59;6253410;27;97359;-73
2022/06/17 14:06:11;;;;;;;;;1.00;1.00;;;;;29.63;27.11;99291.13;6237721;27;99525;-75
2022/06/17 14:09:26;;;;;;;;;1.20;1.20;;;;;29.66;25.88;99304.38;6245675;27;96493;-74
2022/06/17 14:12:48;;;;;;;;;1.00;1.00;;;;;29.74;25.97;99299.88;6237066;27;97097;-74
2022/06/17 14:15:59;;;;;;;;;2.00;2.00;;;;;29.73;24.99;99276.84;6259172;27;96619;-74
2022/06/17 14:19:08;;;;;;;;;2.00;2.00;;;;;29.83;25.61;99282.00;6249683;27;97555;-73
2022/06/17 14:22:20;;;;;;;;;1.00;1.00;;;;;29.91;25.77;99299.81;6264282;27;96519;-74
2022/06/17 14:25:45;;;;;;;;;1.00;1.00;;;;;29.83;25.69;99309.78;6263335;27;97534;-74
2022/06/17 14:29:13;;;;;;;;;1.00;1.00;;;;;29.84;25.90;99305.03;6255482;27;97609;-74
2022/06/17 14:32:20;;;;;;;;;1.00;1.00;;;;;29.73;25.78;99307.41;6240424;27;99068;-74
2022/06/17 14:35:30;;;;;;;;;2.00;2.00;;;;;29.60;26.72;99320.41;6260347;27;96916;-74
2022/06/17 14:38:40;;;;;;;;;1.00;1.00;;;;;29.52;26.99;99309.34;6228435;27;96572;-72
2022/06/17 14:45:28;;;;;;;;;1.60;1.60;;;;;29.27;27.90;99308.34;6231508;27;97036;-72
2022/06/17 14:48:40;;;;;;;;;2.00;2.00;;;;;29.24;28.74;99301.47;6255965;27;97770;-74